createdAt,value
2019-01-31T00:02:57.871Z,47.29
2019-01-31T00:08:12.692Z,47.26
2019-01-31T00:13:37.639Z,47.32
2019-01-31T00:18:53.120Z,47.34
2019-01-31T00:24:08.531Z,47.33
2019-01-31T00:29:36.075Z,47.34
2019-01-31T00:35:06.203Z,47.34
2019-01-31T00:40:15.449Z,47.30
2019-01-31T00:45:40.388Z,47.34
2019-01-31T00:50:49.922Z,47.18
2019-01-31T00:55:56.436Z,47.18
2019-01-31T01:01:15.098Z,47.31
2019-01-31T01:11:55.992Z,47.34
2019-01-31T01:17:13.790Z,47.39
2019-01-31T01:22:23.197Z,47.41
2019-01-31T01:27:49.388Z,47.41
2019-01-31T01:32:55.925Z,47.37
2019-01-31T01:38:20.683Z,47.35
2019-01-31T01:43:35.932Z,47.37
2019-01-31T01:48:54.208Z,47.31
2019-01-31T01:54:18.950Z,47.28
2019-01-31T01:59:46.306Z,47.29
2019-01-31T02:05:04.696Z,47.22
2019-01-31T02:10:17.322Z,47.20
2019-01-31T02:15:26.359Z,47.17
2019-01-31T02:21:00.012Z,47.14
2019-01-31T02:26:18.430Z,47.14
2019-01-31T02:31:27.396Z,47.09
2019-01-31T02:36:39.797Z,47.08
2019-01-31T02:42:01.402Z,47.06
2019-01-31T02:47:16.907Z,47.04
2019-01-31T02:52:49.034Z,47.00
2019-01-31T02:58:12.098Z,46.99
2019-01-31T03:03:21.589Z,46.98
2019-01-31T03:08:33.870Z,46.97
2019-01-31T03:13:43.296Z,46.92
2019-01-31T03:18:58.410Z,46.92
2019-01-31T03:24:16.999Z,46.89
2019-01-31T03:29:29.472Z,46.89
2019-01-31T03:34:54.174Z,46.83
2019-01-31T03:40:15.470Z,46.84
2019-01-31T03:45:42.934Z,46.83
2019-01-31T03:51:00.906Z,46.80
2019-01-31T03:56:16.469Z,46.74
2019-01-31T04:01:37.647Z,46.68
2019-01-31T04:06:41.119Z,46.68
2019-01-31T04:11:44.610Z,46.67
2019-01-31T04:16:48.086Z,46.66
2019-01-31T04:21:51.569Z,46.64
2019-01-31T04:26:55.061Z,46.64
2019-01-31T04:31:58.535Z,46.63
2019-01-31T04:37:02.018Z,46.60
2019-01-31T04:42:05.526Z,46.59
2019-01-31T04:47:08.993Z,46.61
2019-01-31T04:52:12.480Z,46.60
2019-01-31T04:57:15.961Z,46.73
2019-01-31T05:02:19.442Z,46.87
2019-01-31T05:07:22.927Z,46.97
2019-01-31T05:12:26.407Z,47.08
2019-01-31T05:17:29.885Z,47.12
2019-01-31T05:22:33.363Z,47.13
2019-01-31T05:27:36.851Z,47.14
2019-01-31T05:32:40.333Z,47.21
2019-01-31T05:37:43.819Z,47.20
2019-01-31T05:42:47.301Z,47.24
2019-01-31T05:47:50.782Z,47.26
2019-01-31T05:52:54.270Z,47.25
2019-01-31T05:57:57.751Z,47.45
2019-01-31T06:03:01.237Z,47.45
2019-01-31T06:08:04.897Z,47.30
2019-01-31T06:13:08.376Z,47.28
2019-01-31T06:18:11.906Z,47.28
2019-01-31T06:23:15.370Z,47.24
2019-01-31T06:28:18.837Z,47.28
2019-01-31T06:33:22.769Z,47.28
2019-01-31T06:38:26.233Z,47.29
2019-01-31T06:43:29.703Z,47.24
2019-01-31T06:48:34.091Z,47.26
2019-01-31T06:53:37.712Z,47.22
2019-01-31T06:58:41.349Z,47.20
2019-01-31T07:03:44.824Z,47.19
2019-01-31T07:08:48.291Z,47.18
2019-01-31T07:13:51.756Z,47.15
2019-01-31T07:18:55.233Z,47.14
2019-01-31T07:23:58.693Z,47.24
2019-01-31T07:29:02.528Z,47.25
2019-01-31T07:34:06.009Z,47.28
2019-01-31T07:39:09.612Z,47.29
2019-01-31T07:44:13.078Z,47.22
2019-01-31T07:49:16.613Z,47.16
2019-01-31T07:54:20.079Z,47.17
2019-01-31T07:59:23.553Z,47.31
2019-01-31T08:04:27.017Z,29.32
2019-01-31T08:09:30.481Z,25.60
2019-01-31T08:14:33.948Z,27.43
2019-01-31T08:19:37.419Z,31.61
2019-01-31T08:24:40.885Z,35.75
2019-01-31T08:29:44.352Z,36.52
2019-01-31T08:34:47.812Z,37.13
2019-01-31T08:39:51.287Z,37.62
2019-01-31T08:44:54.753Z,38.15
2019-01-31T08:49:58.220Z,38.65
2019-01-31T08:55:01.687Z,38.97
2019-01-31T09:00:11.849Z,39.38
2019-01-31T09:05:15.653Z,39.62
2019-01-31T09:10:30.629Z,39.84
2019-01-31T09:15:34.095Z,40.00
2019-01-31T09:20:40.610Z,40.22
2019-01-31T09:26:14.191Z,40.29
2019-01-31T09:31:23.255Z,40.60
2019-01-31T09:36:50.918Z,40.60
2019-01-31T09:42:03.313Z,40.93
2019-01-31T09:47:18.853Z,41.13
2019-01-31T09:52:41.591Z,41.31
2019-01-31T09:57:56.811Z,41.46
2019-01-31T10:03:24.565Z,41.63
2019-01-31T10:08:33.802Z,42.01
2019-01-31T10:14:13.221Z,42.57
2019-01-31T10:19:46.677Z,43.72
2019-01-31T10:25:16.479Z,43.99
2019-01-31T10:30:40.342Z,40.19
2019-01-31T10:36:15.284Z,25.55
2019-01-31T10:41:47.716Z,23.98
2019-01-31T10:46:57.099Z,26.69
2019-01-31T10:52:03.611Z,31.18
2019-01-31T10:57:36.194Z,32.05
2019-01-31T11:02:57.591Z,34.42
2019-01-31T11:08:25.066Z,34.91
2019-01-31T11:13:39.940Z,35.71
2019-01-31T11:19:12.466Z,36.47
2019-01-31T11:24:19.325Z,38.18
2019-01-31T11:29:28.704Z,38.82
2019-01-31T11:34:58.303Z,39.16
2019-01-31T11:40:19.687Z,39.97
2019-01-31T11:45:32.009Z,40.61
2019-01-31T11:50:53.803Z,40.90
2019-01-31T11:56:09.195Z,41.47
2019-01-31T12:01:12.833Z,41.89
2019-01-31T12:06:16.372Z,42.12
2019-01-31T12:11:19.835Z,42.46
2019-01-31T12:16:23.348Z,42.58
2019-01-31T12:21:26.841Z,42.76
2019-01-31T12:26:30.294Z,42.68
2019-01-31T12:31:33.830Z,42.82
2019-01-31T12:36:37.302Z,43.00
2019-01-31T12:41:40.766Z,43.33
2019-01-31T12:46:44.307Z,43.33
2019-01-31T12:51:47.773Z,43.60
2019-01-31T12:56:51.245Z,43.71
2019-01-31T13:01:54.710Z,43.85
2019-01-31T13:06:58.254Z,43.88
2019-01-31T13:12:01.716Z,43.86
2019-01-31T13:17:07.029Z,43.92
2019-01-31T13:22:10.495Z,43.88
2019-01-31T13:27:14.000Z,43.90
2019-01-31T13:32:17.464Z,43.98
2019-01-31T13:37:20.928Z,43.90
2019-01-31T13:42:24.399Z,44.10
2019-01-31T13:47:27.874Z,44.12
2019-01-31T13:52:31.339Z,44.03
2019-01-31T13:57:34.796Z,44.31
2019-01-31T14:02:38.265Z,44.49
2019-01-31T14:07:41.799Z,44.47
2019-01-31T14:12:46.122Z,44.51
2019-01-31T14:17:49.587Z,44.51
2019-01-31T14:22:53.392Z,44.50
2019-01-31T14:27:56.860Z,44.13
2019-01-31T14:33:01.035Z,44.03
2019-01-31T14:38:05.042Z,43.92
2019-01-31T14:43:08.500Z,43.88
2019-01-31T14:48:11.964Z,43.90
2019-01-31T14:53:15.487Z,43.90
2019-01-31T14:58:20.023Z,44.01
2019-01-31T15:03:23.603Z,43.90
2019-01-31T15:08:27.073Z,43.91
2019-01-31T15:13:30.563Z,43.85
2019-01-31T15:18:34.034Z,43.97
2019-01-31T15:23:37.495Z,44.60
2019-01-31T15:28:40.970Z,44.85
2019-01-31T15:33:44.437Z,45.07
2019-01-31T15:38:47.972Z,45.01
2019-01-31T15:43:51.435Z,45.03
2019-01-31T15:48:54.900Z,45.03
2019-01-31T15:53:58.369Z,45.04
2019-01-31T15:59:01.942Z,45.08
2019-01-31T16:04:05.566Z,45.15
2019-01-31T16:09:09.295Z,45.01
2019-01-31T16:14:12.795Z,44.68
2019-01-31T16:19:16.816Z,44.55
2019-01-31T16:24:20.287Z,44.60
2019-01-31T16:29:23.902Z,44.73
2019-01-31T16:34:28.126Z,44.80
2019-01-31T16:39:31.677Z,44.87
2019-01-31T16:44:35.136Z,44.84
2019-01-31T16:49:38.608Z,44.48
2019-01-31T16:54:42.151Z,44.42
2019-01-31T16:59:45.611Z,44.42
2019-01-31T17:04:49.149Z,44.37
2019-01-31T17:09:52.614Z,44.44
2019-01-31T17:14:56.105Z,44.54
2019-01-31T17:19:59.642Z,44.57
2019-01-31T17:25:03.516Z,44.64
2019-01-31T17:30:12.995Z,44.77
2019-01-31T17:35:16.701Z,45.33
2019-01-31T17:40:23.210Z,45.78
2019-01-31T17:45:30.354Z,46.52
2019-01-31T17:50:32.130Z,46.92
2019-01-31T17:55:35.593Z,47.07
2019-01-31T18:00:48.069Z,46.91
2019-01-31T18:05:51.773Z,46.81
2019-01-31T18:10:55.320Z,46.20
2019-01-31T18:15:59.035Z,45.91
2019-01-31T18:21:02.574Z,45.72
2019-01-31T18:26:06.380Z,45.55
2019-01-31T18:31:09.849Z,45.48
2019-01-31T18:36:13.316Z,45.46
2019-01-31T18:41:16.921Z,45.37
2019-01-31T18:46:21.246Z,45.42
2019-01-31T18:51:25.293Z,45.40
2019-01-31T18:56:29.501Z,45.28
2019-01-31T19:01:33.638Z,45.26
2019-01-31T19:06:37.870Z,45.28
2019-01-31T19:11:41.698Z,45.28
2019-01-31T19:16:45.741Z,45.30
2019-01-31T19:21:49.850Z,45.32
2019-01-31T19:26:54.086Z,45.34
2019-01-31T19:31:58.616Z,45.38
2019-01-31T19:37:03.428Z,45.37
2019-01-31T19:42:07.597Z,45.42
2019-01-31T19:47:12.139Z,45.43
2019-01-31T19:52:16.573Z,45.46
2019-01-31T19:57:20.709Z,45.49
2019-01-31T20:02:25.241Z,45.51
2019-01-31T20:07:29.985Z,45.55
2019-01-31T20:12:34.761Z,45.57
2019-01-31T20:17:39.291Z,45.60
2019-01-31T20:22:43.917Z,45.62
2019-01-31T20:27:48.864Z,45.69
2019-01-31T20:32:53.809Z,45.72
2019-01-31T20:37:58.152Z,45.77
2019-01-31T20:43:03.062Z,45.77
2019-01-31T20:48:07.634Z,45.81
2019-01-31T20:53:12.451Z,45.82
2019-01-31T20:58:17.323Z,45.84
2019-01-31T21:03:24.707Z,45.83
2019-01-31T21:08:27.953Z,45.83
2019-01-31T21:13:32.295Z,45.84
2019-01-31T21:18:36.619Z,45.84
2019-01-31T21:23:40.445Z,45.85
2019-01-31T21:28:44.052Z,45.84
2019-01-31T21:33:47.511Z,45.87
2019-01-31T21:38:52.755Z,45.90
2019-01-31T21:43:56.225Z,45.89
2019-01-31T21:48:59.688Z,45.90
2019-01-31T21:54:03.297Z,45.90
2019-01-31T21:59:08.947Z,45.92
2019-01-31T22:04:12.156Z,45.91
2019-01-31T22:09:15.628Z,45.91
2019-01-31T22:14:19.164Z,45.92
2019-01-31T22:19:22.628Z,45.96
2019-01-31T22:24:26.096Z,45.95
2019-01-31T22:29:29.567Z,45.96
2019-01-31T22:34:33.106Z,45.97
2019-01-31T22:39:36.647Z,45.96
2019-01-31T22:44:40.109Z,45.98
2019-01-31T22:49:43.579Z,45.97
2019-01-31T22:54:47.128Z,45.99
2019-01-31T22:59:50.597Z,45.99
2019-01-31T23:04:54.064Z,45.96
2019-01-31T23:09:57.535Z,45.98
2019-01-31T23:15:01.011Z,46.00
2019-01-31T23:20:07.832Z,46.03
2019-01-31T23:25:11.467Z,46.06
2019-01-31T23:30:16.370Z,46.04
2019-01-31T23:35:19.833Z,46.01
2019-01-31T23:40:23.298Z,46.01
2019-01-31T23:45:26.761Z,46.02
2019-01-31T23:50:30.223Z,46.04
2019-01-31T23:55:33.689Z,46.01
